Time;durP1;ratioP1;P1;durP2;ratioP2;P2;SDS_P1;SDS_P2;PMS_P1;PMS_P2;Temp;Humidity;BMP_temperature;BMP_pressure;BME280_temperature;BME280_humidity;BME280_pressure;Samples;Min_cycle;Max_cycle;Signal;HPM_P1;HPM_P2
2022/02/22 00:01:18;;;;;;;6.72;4.50;;;;;;;7.73;67.48;99206.38;1752288;79;21013;-72
2022/02/22 00:03:54;;;;;;;6.85;4.50;;;;;;;7.69;67.48;99202.67;1755100;79;21619;-72
2022/02/22 00:06:20;;;;;;;6.08;4.28;;;;;;;7.65;67.49;99206.41;1760763;79;20986;-72
2022/02/22 00:08:47;;;;;;;6.90;4.20;;;;;;;7.60;67.50;99203.78;1751144;79;21092;-72
2022/02/22 00:11:15;;;;;;;6.35;4.12;;;;;;;7.55;67.50;99206.44;1749851;79;21038;-73
2022/02/22 00:13:42;;;;;;;5.75;3.83;;;;;;;7.49;67.55;99206.19;1756641;79;21131;-73
2022/02/22 00:16:08;;;;;;;6.55;4.17;;;;;;;7.45;67.50;99200.62;1742490;80;21555;-72
2022/02/22 00:18:35;;;;;;;6.00;4.15;;;;;;;7.45;67.48;99210.45;1736700;82;20981;-73
2022/02/22 00:21:02;;;;;;;6.03;4.08;;;;;;;7.40;67.52;99204.59;1745043;79;21105;-72
2022/02/22 00:23:29;;;;;;;6.83;4.12;;;;;;;7.40;67.54;99199.82;1746186;81;21564;-75
2022/02/22 00:25:55;;;;;;;6.42;4.45;;;;;;;7.39;67.56;99199.03;1756818;79;20998;-72
2022/02/22 00:28:22;;;;;;;6.37;3.77;;;;;;;7.39;67.52;99191.59;1747960;80;21644;-71
2022/02/22 00:30:50;;;;;;;5.80;4.05;;;;;;;7.40;67.49;99195.84;1749000;79;21053;-73
2022/02/22 00:33:17;;;;;;;6.42;4.22;;;;;;;7.42;67.49;99199.82;1752925;79;21577;-73
2022/02/22 00:35:44;;;;;;;6.25;3.80;;;;;;;7.45;67.37;99200.62;1742836;81;21010;-73
2022/02/22 00:38:10;;;;;;;6.10;3.92;;;;;;;7.47;67.27;99193.72;1736807;82;20993;-72
2022/02/22 00:40:37;;;;;;;5.95;4.00;;;;;;;7.48;67.22;99189.98;1741671;79;21933;-73
2022/02/22 00:43:04;;;;;;;6.53;4.10;;;;;;;7.51;67.17;99192.11;1748407;79;21077;-73
2022/02/22 00:45:32;;;;;;;5.80;3.83;;;;;;;7.54;67.11;99194.77;1755544;79;21076;-73
2022/02/22 00:47:59;;;;;;;5.47;3.67;;;;;;;7.57;67.06;99192.87;1754856;79;21037;-73
2022/02/22 00:50:28;;;;;;;6.15;3.87;;;;;;;7.59;67.00;99192.08;1748610;79;21356;-72
2022/02/22 00:52:56;;;;;;;6.03;4.05;;;;;;;7.61;66.94;99186.77;1757538;79;21505;-73
2022/02/22 00:55:23;;;;;;;5.62;3.80;;;;;;;7.63;66.89;99189.92;1754568;80;21037;-73
2022/02/22 00:57:51;;;;;;;5.92;3.60;;;;;;;7.62;66.77;99188.34;1745158;81;21105;-73
2022/02/22 01:00:19;;;;;;;6.12;3.87;;;;;;;7.64;66.72;99191.54;1753252;81;21022;-73
2022/02/22 01:02:47;;;;;;;6.58;4.03;;;;;;;7.66;66.71;99187.27;1754537;81;21045;-73
2022/02/22 01:05:14;;;;;;;5.35;3.67;;;;;;;7.70;66.72;99189.64;1754048;79;21929;-74
2022/02/22 01:07:41;;;;;;;6.50;3.75;;;;;;;7.71;66.64;99192.05;1749278;81;21739;-73
2022/02/22 01:10:08;;;;;;;6.28;3.77;;;;;;;7.74;66.60;99190.17;1747397;80;21069;-73
2022/02/22 01:12:35;;;;;;;6.65;4.12;;;;;;;7.75;66.51;99194.41;1754643;81;21065;-72
2022/02/22 01:15:03;;;;;;;8.40;4.10;;;;;;;7.78;66.42;99200.27;1755099;81;20938;-72
2022/02/22 01:17:31;;;;;;;6.42;4.58;;;;;;;7.77;66.32;99195.48;1767031;79;20950;-73
2022/02/22 01:19:58;;;;;;;7.90;4.70;;;;;;;7.77;66.27;99197.35;1765594;80;22176;-72
2022/02/22 01:22:25;;;;;;;6.65;4.22;;;;;;;7.74;66.25;99198.14;1766498;80;21018;-72
2022/02/22 01:24:52;;;;;;;5.95;4.33;;;;;;;7.72;66.30;99194.16;1767209;79;21073;-74
2022/02/22 01:27:19;;;;;;;6.55;4.17;;;;;;;7.72;66.30;99193.63;1754122;79;21076;-73
2022/02/22 01:29:45;;;;;;;6.12;3.70;;;;;;;7.74;66.31;99198.14;1752294;79;21734;-72
2022/02/22 01:32:12;;;;;;;6.45;4.17;;;;;;;7.75;66.33;99198.94;1753864;79;20978;-72
2022/02/22 01:34:39;;;;;;;7.12;4.67;;;;;;;7.72;66.32;99192.83;1756887;79;21077;-74
2022/02/22 01:37:06;;;;;;;6.42;4.60;;;;;;;7.71;66.35;99191.25;1750108;81;21085;-73
2022/02/22 01:39:35;;;;;;;5.83;3.80;;;;;;;7.72;66.37;99196.28;1752028;81;21136;-73
2022/02/22 01:42:02;;;;;;;6.58;4.22;;;;;;;7.72;66.39;99206.91;1755994;81;21089;-72
2022/02/22 01:44:30;;;;;;;6.75;4.12;;;;;;;7.72;66.44;99208.23;1754972;80;21057;-72
2022/02/22 01:47:00;;;;;;;6.25;4.00;;;;;;;7.71;66.51;99205.33;1760112;79;21053;-72
2022/02/22 01:49:27;;;;;;;5.78;3.90;;;;;;;7.73;66.55;99200.55;1755811;79;21563;-72
2022/02/22 01:51:53;;;;;;;6.58;4.20;;;;;;;7.72;66.60;99206.13;1740514;81;20996;-73
2022/02/22 01:54:21;;;;;;;6.28;3.95;;;;;;;7.71;66.61;99211.19;1736362;82;21083;-73
2022/02/22 01:56:48;;;;;;;6.00;4.15;;;;;;;7.69;66.66;99213.30;1740098;81;21014;-73
2022/02/22 01:59:15;;;;;;;6.40;4.33;;;;;;;7.65;66.69;99216.25;1736457;81;21029;-73
2022/02/22 02:01:42;;;;;;;7.72;4.47;;;;;;;7.58;66.82;99219.19;1745094;81;21532;-72
2022/02/22 02:04:09;;;;;;;6.65;4.25;;;;;;;7.51;67.01;99217.34;1751864;79;21013;-72
2022/02/22 02:06:37;;;;;;;7.42;4.65;;;;;;;7.53;67.18;99219.19;1752062;81;21488;-74
2022/02/22 02:09:07;;;;;;;7.03;4.20;;;;;;;7.55;67.27;99220.27;1753397;79;21018;-72
2022/02/22 02:11:55;;;;;;;7.12;4.70;;;;;;;7.58;67.34;99215.73;1747438;81;21585;-73
2022/02/22 02:14:22;;;;;;;7.25;4.60;;;;;;;7.59;67.37;99227.41;1749082;80;21576;-72
2022/02/22 02:16:49;;;;;;;7.30;4.90;;;;;;;7.58;67.40;99215.20;1755278;81;21049;-73
2022/02/22 02:19:18;;;;;;;6.28;4.60;;;;;;;7.56;67.44;99210.68;1751432;80;21501;-73
2022/02/22 02:21:46;;;;;;;7.28;5.00;;;;;;;7.58;67.50;99214.41;1753679;79;21553;-74
2022/02/22 02:24:23;;;;;;;7.80;5.22;;;;;;;7.56;67.53;99208.02;1745441;79;21025;-74
2022/02/22 02:26:52;;;;;;;7.33;4.53;;;;;;;7.58;67.63;99206.44;1754621;79;21146;-73
2022/02/22 02:29:25;;;;;;;8.80;5.15;;;;;;;7.60;67.64;99204.29;1783358;78;20994;-72
2022/02/22 02:31:53;;;;;;;7.22;5.10;;;;;;;7.55;67.69;99200.33;1796491;78;21332;-72
2022/02/22 02:34:23;;;;;;;7.97;5.28;;;;;;;7.48;67.85;99204.06;1796301;78;20998;-72
2022/02/22 02:36:50;;;;;;;8.25;5.15;;;;;;;7.48;67.95;99211.24;1784883;78;21054;-73
2022/02/22 02:39:16;;;;;;;7.78;5.30;;;;;;;7.46;68.02;99209.37;1786189;78;21038;-74
2022/02/22 02:41:45;;;;;;;7.72;5.30;;;;;;;7.42;68.08;99214.44;1788895;78;21279;-73
2022/02/22 02:44:18;;;;;;;7.20;5.28;;;;;;;7.41;68.16;99214.72;1784506;78;21119;-73
2022/02/22 02:46:45;;;;;;;8.03;5.33;;;;;;;7.36;68.31;99212.84;1786940;78;21069;-72
2022/02/22 02:49:13;;;;;;;7.10;4.58;;;;;;;7.34;68.44;99220.81;1783323;78;20999;-73
2022/02/22 02:51:40;;;;;;;8.78;5.90;;;;;;;7.33;68.57;99227.98;1793763;78;21042;-73
2022/02/22 02:54:07;;;;;;;7.62;5.25;;;;;;;7.29;68.65;99229.59;1774771;78;21042;-73
2022/02/22 02:56:35;;;;;;;8.98;5.47;;;;;;;7.28;68.77;99235.45;1778356;78;21223;-73
2022/02/22 02:59:05;;;;;;;7.72;5.30;;;;;;;7.32;68.82;99241.55;1782376;78;20998;-73
2022/02/22 03:01:33;;;;;;;7.20;5.22;;;;;;;7.32;68.84;99245.53;1783884;78;21073;-73
2022/02/22 03:04:01;;;;;;;8.15;5.70;;;;;;;7.31;68.90;99251.38;1787514;78;21136;-73
2022/02/22 03:06:28;;;;;;;9.03;5.58;;;;;;;7.31;68.91;99256.70;1784195;78;20994;-72
2022/02/22 03:08:55;;;;;;;7.80;5.58;;;;;;;7.29;68.93;99258.27;1784319;78;21503;-73
2022/02/22 03:11:22;;;;;;;8.65;5.80;;;;;;;7.30;68.95;99265.70;1788843;78;21493;-73
2022/02/22 03:13:48;;;;;;;7.90;5.87;;;;;;;7.32;68.95;99266.78;1783238;78;21097;-73
2022/02/22 03:16:15;;;;;;;8.73;5.65;;;;;;;7.34;68.98;99268.63;1787461;78;21097;-72
2022/02/22 03:18:43;;;;;;;8.43;5.37;;;;;;;7.35;68.99;99275.02;1786530;78;21046;-73
2022/02/22 03:21:09;;;;;;;7.17;5.00;;;;;;;7.41;68.99;99268.64;1782961;78;21157;-72
2022/02/22 03:23:38;;;;;;;8.88;5.58;;;;;;;7.47;68.96;99267.58;1750268;79;20950;-72
2022/02/22 03:26:05;;;;;;;8.60;5.70;;;;;;;7.47;68.87;99268.90;1722738;81;21472;-72
2022/02/22 03:28:32;;;;;;;8.15;5.62;;;;;;;7.47;68.80;99270.23;1756057;79;21037;-72
2022/02/22 03:31:00;;;;;;;7.78;5.05;;;;;;;7.46;68.72;99274.46;1723308;81;21057;-72
2022/02/22 03:33:26;;;;;;;8.38;5.00;;;;;;;7.43;68.69;99278.98;1755038;79;21735;-72
2022/02/22 03:35:53;;;;;;;8.80;5.20;;;;;;;7.40;68.70;99284.29;1718788;81;21557;-71
2022/02/22 03:38:20;;;;;;;9.03;5.55;;;;;;;7.34;68.73;99295.19;1760404;79;21091;-73
2022/02/22 03:40:47;;;;;;;6.83;4.85;;;;;;;7.29;68.85;99300.77;1725250;81;21023;-71
2022/02/22 03:43:13;;;;;;;8.23;5.55;;;;;;;7.25;68.96;99298.92;1759741;79;21148;-71
2022/02/22 03:45:41;;;;;;;7.87;5.53;;;;;;;7.23;69.02;99300.50;1720444;81;21942;-74
2022/02/22 03:48:08;;;;;;;6.83;4.72;;;;;;;7.24;69.05;99302.66;1724944;81;21412;-73
2022/02/22 03:50:34;;;;;;;6.90;4.60;;;;;;;7.25;69.09;99298.39;1719282;81;21032;-73
2022/02/22 03:53:01;;;;;;;6.50;4.70;;;;;;;7.23;69.11;99303.16;1722065;81;20965;-71
2022/02/22 03:55:28;;;;;;;8.68;5.10;;;;;;;7.21;69.11;99303.97;1721125;81;20999;-71
2022/02/22 03:57:55;;;;;;;10.15;5.42;;;;;;;7.19;69.12;99303.96;1729517;81;21511;-73
2022/02/22 04:00:26;;;;;;;8.18;5.40;;;;;;;7.18;69.13;99307.16;1722019;81;20994;-71
2022/02/22 04:02:54;;;;;;;8.08;5.08;;;;;;;7.17;69.16;99307.41;1751102;79;21013;-74
2022/02/22 04:05:21;;;;;;;7.03;5.22;;;;;;;7.14;69.20;99308.75;1719642;81;21018;-74
2022/02/22 04:07:49;;;;;;;8.08;5.50;;;;;;;7.09;69.27;99310.06;1766680;79;21020;-74
2022/02/22 04:10:16;;;;;;;6.83;5.08;;;;;;;7.05;69.37;99310.33;1728297;81;21842;-73
2022/02/22 04:12:42;;;;;;;7.72;4.92;;;;;;;7.01;69.45;99310.06;1760294;79;21082;-72
2022/02/22 04:15:10;;;;;;;6.20;4.78;;;;;;;7.04;69.54;99316.68;1724393;81;21137;-72
2022/02/22 04:17:38;;;;;;;7.67;5.10;;;;;;;7.05;69.54;99318.30;1754844;79;21005;-72
2022/02/22 04:20:07;;;;;;;7.55;4.83;;;;;;;7.07;69.52;99315.36;1730115;81;21124;-72
2022/02/22 04:22:36;;;;;;;6.97;4.85;;;;;;;7.09;69.48;99321.22;1760417;79;20958;-72
2022/02/22 04:25:04;;;;;;;7.08;5.08;;;;;;;7.05;69.49;99321.74;1721176;81;21777;-73
2022/02/22 04:27:31;;;;;;;7.90;4.92;;;;;;;7.03;69.49;99323.06;1759902;79;21044;-72
2022/02/22 04:29:57;;;;;;;6.85;5.03;;;;;;;7.01;69.52;99325.20;1723141;81;21615;-73
2022/02/22 04:32:24;;;;;;;7.50;4.95;;;;;;;6.98;69.52;99325.19;1762951;79;21021;-73
2022/02/22 04:34:50;;;;;;;7.55;4.78;;;;;;;7.00;69.53;99332.88;1725376;81;21515;-73
2022/02/22 04:37:17;;;;;;;7.85;4.90;;;;;;;6.99;69.56;99326.77;1722556;81;21063;-72
2022/02/22 04:39:47;;;;;;;7.30;4.95;;;;;;;6.98;69.55;99327.05;1722988;81;21044;-72
2022/02/22 04:42:14;;;;;;;6.97;5.15;;;;;;;6.97;69.58;99328.88;1722211;81;20938;-72
2022/02/22 04:44:40;;;;;;;6.78;5.22;;;;;;;6.93;69.61;99327.03;1723215;81;21090;-73
2022/02/22 04:47:07;;;;;;;6.78;4.83;;;;;;;6.92;69.64;99327.56;1725489;81;21617;-73
2022/02/22 04:49:34;;;;;;;7.15;4.92;;;;;;;6.94;69.66;99339.23;1716665;81;21127;-73
2022/02/22 04:52:03;;;;;;;7.15;4.92;;;;;;;6.93;69.65;99338.97;1732562;81;21061;-73
2022/02/22 04:54:30;;;;;;;6.58;4.37;;;;;;;6.91;69.66;99331.28;1758086;79;21107;-71
2022/02/22 04:56:57;;;;;;;7.10;5.35;;;;;;;6.93;69.64;99337.11;1719295;81;21704;-72
2022/02/22 04:59:26;;;;;;;8.25;5.50;;;;;;;6.93;69.59;99331.80;1718827;81;21031;-72
2022/02/22 05:01:53;;;;;;;8.80;5.62;;;;;;;6.91;69.57;99331.80;1714637;81;21067;-72
2022/02/22 05:04:19;;;;;;;8.28;6.00;;;;;;;6.90;69.54;99338.96;1757008;79;21516;-72
2022/02/22 05:06:46;;;;;;;8.00;5.55;;;;;;;6.89;69.49;99342.69;1729002;81;21078;-73
2022/02/22 05:09:12;;;;;;;8.93;5.75;;;;;;;6.87;69.51;99344.79;1755509;79;21037;-73
2022/02/22 05:11:39;;;;;;;9.03;6.15;;;;;;;6.85;69.51;99342.95;1718443;81;21528;-73
2022/02/22 05:14:05;;;;;;;9.35;6.10;;;;;;;6.83;69.54;99342.94;1752177;79;21088;-73
2022/02/22 05:16:35;;;;;;;9.60;6.17;;;;;;;6.82;69.57;99348.78;1705711;84;20949;-73
2022/02/22 05:19:04;;;;;;;9.03;5.92;;;;;;;6.82;69.58;99352.75;1705195;82;21142;-73
2022/02/22 05:21:34;;;;;;;7.95;5.45;;;;;;;6.83;69.61;99364.16;1704447;82;21455;-74
2022/02/22 05:24:02;;;;;;;8.50;5.62;;;;;;;6.78;69.64;99371.06;1705631;82;21535;-72
2022/02/22 05:26:28;;;;;;;9.30;6.50;;;;;;;6.77;69.75;99365.47;1742195;81;21049;-74
2022/02/22 05:28:55;;;;;;;9.50;6.72;;;;;;;6.78;69.74;99367.62;1711021;81;20999;-73
2022/02/22 05:31:22;;;;;;;14.98;9.58;;;;;;;6.77;69.74;99373.42;1734925;81;21457;-72
2022/02/22 05:33:48;;;;;;;15.35;8.75;;;;;;;6.77;69.79;99378.73;1734812;82;20997;-72
2022/02/22 05:36:15;;;;;;;15.72;9.55;;;;;;;6.80;69.80;99379.55;1734981;82;21569;-72
2022/02/22 05:38:42;;;;;;;15.60;9.83;;;;;;;6.84;69.74;99381.67;1728047;81;20934;-73
2022/02/22 05:41:09;;;;;;;12.93;8.53;;;;;;;6.84;69.72;99377.16;1734807;81;21486;-72
2022/02/22 05:43:36;;;;;;;12.70;8.75;;;;;;;6.85;69.66;99379.31;1734963;81;21009;-72
2022/02/22 05:46:03;;;;;;;13.62;9.13;;;;;;;6.87;69.63;99385.14;1735052;81;20977;-72
2022/02/22 05:48:31;;;;;;;10.98;7.47;;;;;;;6.87;69.62;99385.93;1735260;81;21982;-73
2022/02/22 05:50:58;;;;;;;10.08;7.70;;;;;;;6.88;69.58;99388.88;1734898;81;20957;-73
2022/02/22 05:53:25;;;;;;;10.98;7.78;;;;;;;6.89;69.56;99393.65;1767349;79;21009;-72
2022/02/22 05:55:51;;;;;;;10.03;6.78;;;;;;;6.89;69.52;99406.39;1757836;79;21501;-73
2022/02/22 05:58:18;;;;;;;9.55;6.70;;;;;;;6.89;69.53;99405.59;1754460;79;21101;-73
2022/02/22 06:00:44;;;;;;;11.55;7.80;;;;;;;6.93;69.53;99411.44;1753822;79;21085;-73
2022/02/22 06:03:12;;;;;;;11.48;8.28;;;;;;;6.95;69.46;99413.31;1748372;80;21081;-72
2022/02/22 06:05:39;;;;;;;11.03;7.92;;;;;;;6.93;69.37;99420.73;1747110;79;21057;-73
2022/02/22 06:08:06;;;;;;;12.47;8.35;;;;;;;6.91;69.38;99416.73;1736587;81;21533;-73
2022/02/22 06:10:33;;;;;;;11.55;8.00;;;;;;;6.89;69.40;99417.54;1738623;81;21091;-73
2022/02/22 06:12:59;;;;;;;11.45;7.72;;;;;;;6.91;69.43;99430.00;1736466;81;21143;-73
2022/02/22 06:15:26;;;;;;;12.60;8.55;;;;;;;6.91;69.38;99430.00;1737152;81;20962;-73
2022/02/22 06:17:53;;;;;;;11.55;7.97;;;;;;;6.90;69.34;99433.73;1747737;80;21668;-73
2022/02/22 06:20:20;;;;;;;9.73;7.05;;;;;;;6.88;69.34;99438.48;1756806;79;20982;-73
2022/02/22 06:22:47;;;;;;;11.68;7.80;;;;;;;6.90;69.34;99447.80;1747304;79;21123;-73
2022/02/22 06:25:13;;;;;;;10.35;7.42;;;;;;;6.90;69.27;99445.67;1752402;80;21555;-73
2022/02/22 06:27:49;;;;;;;9.80;7.25;;;;;;;6.89;69.26;99459.48;1756265;79;21097;-73
2022/02/22 06:30:17;;;;;;;10.80;7.87;;;;;;;6.88;69.28;99464.52;1754309;81;21556;-72
2022/02/22 06:32:44;;;;;;;11.00;7.83;;;;;;;6.87;69.28;99462.11;1751862;81;21045;-73
2022/02/22 06:35:12;;;;;;;10.53;7.97;;;;;;;6.85;69.25;99465.57;1752814;81;21062;-73
2022/02/22 06:37:39;;;;;;;11.43;8.13;;;;;;;6.83;69.23;99460.51;1748143;81;21053;-73
2022/02/22 06:40:07;;;;;;;11.00;7.65;;;;;;;6.84;69.26;99469.27;1756811;81;21044;-73
2022/02/22 06:42:36;;;;;;;11.93;7.75;;;;;;;6.87;69.26;99470.08;1753284;81;21101;-72
2022/02/22 06:45:04;;;;;;;11.45;8.10;;;;;;;6.91;69.17;99467.16;1746728;81;21008;-72
2022/02/22 06:47:32;;;;;;;11.00;7.58;;;;;;;6.96;69.11;99470.65;1736745;81;21094;-72
2022/02/22 06:49:59;;;;;;;12.18;8.58;;;;;;;7.01;68.96;99468.56;1738513;81;21592;-72
2022/02/22 06:52:25;;;;;;;10.53;7.47;;;;;;;7.09;68.88;99473.89;1747026;81;20971;-73
2022/02/22 06:54:54;;;;;;;11.28;7.85;;;;;;;7.17;68.67;99470.72;1751805;79;21053;-72
2022/02/22 06:57:20;;;;;;;13.60;8.75;;;;;;;7.25;68.37;99468.90;1757004;79;21136;-72
2022/02/22 06:59:47;;;;;;;10.45;7.67;;;;;;;7.32;67.71;99479.27;1752347;79;21509;-72
2022/02/22 07:02:14;;;;;;;12.25;7.75;;;;;;;7.37;67.61;99476.61;1736732;81;21135;-73
2022/02/22 07:04:40;;;;;;;12.23;7.92;;;;;;;7.47;67.47;99475.34;1738954;81;21061;-73
2022/02/22 07:07:07;;;;;;;11.00;7.42;;;;;;;7.58;66.91;99480.92;1736637;81;20966;-73
2022/02/22 07:09:35;;;;;;;11.05;8.05;;;;;;;7.69;66.40;99483.86;1736590;81;21053;-73
2022/02/22 07:12:01;;;;;;;12.70;8.25;;;;;;;7.81;66.17;99476.17;1738926;81;21002;-72
2022/02/22 07:14:28;;;;;;;12.53;8.03;;;;;;;7.90;65.54;99478.58;1745821;81;21497;-73
2022/02/22 07:16:56;;;;;;;10.55;7.65;;;;;;;7.96;65.10;99478.83;1752318;79;21096;-73
2022/02/22 07:19:22;;;;;;;11.20;7.70;;;;;;;7.98;64.32;99480.70;1736292;81;21024;-72
2022/02/22 07:21:49;;;;;;;11.78;7.75;;;;;;;7.92;63.74;99485.20;1747663;81;21033;-72
2022/02/22 07:24:16;;;;;;;12.80;7.70;;;;;;;7.88;63.60;99495.31;1754811;80;22484;-73
2022/02/22 07:26:43;;;;;;;11.90;7.47;;;;;;;7.83;63.29;99489.98;1762582;79;21583;-72
2022/02/22 07:29:09;;;;;;;11.10;7.37;;;;;;;7.77;63.11;99491.86;1755834;81;21044;-73
2022/02/22 07:31:37;;;;;;;13.50;7.78;;;;;;;7.77;63.17;99489.20;1747172;81;20994;-73
2022/02/22 07:34:03;;;;;;;10.45;7.33;;;;;;;7.84;63.14;99495.59;1736710;81;21549;-73
2022/02/22 07:36:30;;;;;;;9.15;5.97;;;;;;;7.87;62.76;99495.06;1736566;81;21080;-72
2022/02/22 07:38:57;;;;;;;9.85;6.87;;;;;;;7.86;62.41;99496.89;1751768;81;21194;-72
2022/02/22 07:41:24;;;;;;;10.53;6.35;;;;;;;7.85;62.34;99496.64;1751804;79;21037;-72
2022/02/22 07:43:51;;;;;;;11.35;6.65;;;;;;;7.86;61.59;99502.75;1749980;81;21355;-71
2022/02/22 07:46:19;;;;;;;11.20;6.70;;;;;;;7.89;61.53;99504.87;1756410;80;21537;-72
2022/02/22 07:48:47;;;;;;;10.78;6.70;;;;;;;7.96;61.51;99513.39;1751204;81;21714;-72
2022/02/22 07:51:16;;;;;;;10.28;6.42;;;;;;;8.02;60.90;99515.53;1754838;79;21053;-74
2022/02/22 07:53:47;;;;;;;10.35;7.33;;;;;;;8.06;60.73;99506.77;1757812;79;21725;-69
2022/02/22 07:56:14;;;;;;;10.38;6.80;;;;;;;8.12;59.62;99504.36;1757815;81;20959;-71
2022/02/22 07:58:41;;;;;;;12.07;6.97;;;;;;;8.13;59.28;99503.31;1753394;79;20998;-72
2022/02/22 08:01:07;;;;;;;11.65;7.20;;;;;;;8.16;59.20;99509.43;1753805;79;21056;-74
2022/02/22 08:03:36;;;;;;;10.72;7.15;;;;;;;8.20;58.91;99507.83;1756506;79;21899;-73
2022/02/22 08:06:03;;;;;;;10.88;6.90;;;;;;;8.29;58.62;99509.94;1753659;79;21539;-74
2022/02/22 08:08:29;;;;;;;9.65;6.67;;;;;;;8.37;58.23;99509.41;1738811;81;21028;-72
2022/02/22 08:10:56;;;;;;;10.40;6.42;;;;;;;8.41;57.33;99511.29;1744698;81;21517;-73
2022/02/22 08:13:23;;;;;;;10.18;6.17;;;;;;;8.42;56.97;99518.23;1756988;79;20986;-72
2022/02/22 08:15:49;;;;;;;10.23;6.83;;;;;;;8.43;55.49;99518.48;1744901;79;21089;-73
2022/02/22 08:18:16;;;;;;;10.90;6.40;;;;;;;8.43;55.38;99519.02;1758358;81;21476;-73
2022/02/22 08:20:42;;;;;;;9.25;6.37;;;;;;;8.51;55.70;99519.80;1737975;79;21123;-72
2022/02/22 08:23:09;;;;;;;8.40;6.12;;;;;;;8.62;55.50;99521.39;1736360;81;21072;-73
2022/02/22 08:25:36;;;;;;;9.23;5.90;;;;;;;8.73;54.31;99521.37;1747450;79;21061;-73
2022/02/22 08:28:09;;;;;;;9.85;6.40;;;;;;;8.79;54.23;99521.63;1750790;81;21184;-73
2022/02/22 08:30:38;;;;;;;10.13;6.15;;;;;;;8.87;54.24;99518.39;1757306;79;21029;-72
2022/02/22 08:33:06;;;;;;;9.40;5.72;;;;;;;8.99;54.32;99508.24;1767365;79;21004;-72
2022/02/22 08:35:34;;;;;;;9.78;5.97;;;;;;;9.12;54.23;99513.53;1764363;80;21080;-73
2022/02/22 08:38:01;;;;;;;10.05;6.00;;;;;;;9.23;53.88;99507.07;1741488;79;21556;-73
2022/02/22 08:40:28;;;;;;;8.63;5.62;;;;;;;9.31;52.95;99508.36;1749699;79;21106;-73
2022/02/22 08:42:55;;;;;;;8.80;5.75;;;;;;;9.31;52.55;99511.84;1749955;81;21219;-72
2022/02/22 08:45:24;;;;;;;7.47;4.65;;;;;;;9.36;52.22;99508.34;1751650;79;21536;-73
2022/02/22 08:47:50;;;;;;;9.38;5.45;;;;;;;9.31;51.27;99521.69;1747122;79;21576;-73
2022/02/22 08:50:17;;;;;;;8.93;5.12;;;;;;;9.33;50.96;99516.89;1751634;79;20990;-74
2022/02/22 08:52:44;;;;;;;9.03;5.12;;;;;;;9.42;50.76;99523.79;1755197;79;21533;-72
2022/02/22 08:55:11;;;;;;;8.28;5.30;;;;;;;9.52;50.29;99516.53;1752688;79;21012;-72
2022/02/22 08:57:38;;;;;;;8.33;4.95;;;;;;;9.57;50.68;99516.48;1748502;79;21068;-72
2022/02/22 09:00:10;;;;;;;9.13;5.72;;;;;;;9.71;50.97;99518.56;1751984;80;21170;-74
2022/02/22 09:02:38;;;;;;;8.83;5.90;;;;;;;9.82;50.45;99521.41;1740700;79;21015;-72
2022/02/22 09:05:05;;;;;;;9.70;6.42;;;;;;;9.91;50.68;99514.42;1738411;81;21601;-73
2022/02/22 09:07:34;;;;;;;10.68;5.92;;;;;;;9.98;51.22;99524.23;1705864;82;20972;-72
2022/02/22 09:10:01;;;;;;;9.98;5.85;;;;;;;10.08;51.10;99524.16;1737459;81;21515;-73
2022/02/22 09:12:28;;;;;;;10.50;6.55;;;;;;;10.22;51.08;99531.52;1736398;81;20981;-74
2022/02/22 09:14:56;;;;;;;10.50;6.25;;;;;;;10.30;50.82;99520.30;1736055;81;21035;-73
2022/02/22 09:17:23;;;;;;;8.35;5.70;;;;;;;10.43;50.67;99519.64;1758702;80;21014;-72
2022/02/22 09:19:50;;;;;;;9.05;5.70;;;;;;;10.56;50.48;99522.98;1751544;79;21013;-73
2022/02/22 09:22:16;;;;;;;8.43;5.70;;;;;;;10.69;50.00;99519.38;1756064;79;21016;-72
2022/02/22 09:24:43;;;;;;;11.18;6.10;;;;;;;10.79;49.54;99523.27;1753190;79;21010;-73
2022/02/22 09:27:10;;;;;;;9.70;6.25;;;;;;;10.87;49.31;99517.86;1752725;79;21017;-72
2022/02/22 09:29:37;;;;;;;9.45;5.97;;;;;;;10.94;47.99;99508.42;1754962;79;22046;-73
2022/02/22 09:32:05;;;;;;;8.78;5.15;;;;;;;10.93;47.97;99512.18;1758650;80;21022;-72
2022/02/22 09:34:32;;;;;;;8.25;5.30;;;;;;;10.99;47.46;99527.08;1751044;79;21552;-73
2022/02/22 09:37:03;;;;;;;8.68;5.45;;;;;;;10.98;45.78;99516.11;1753717;81;21056;-72
2022/02/22 09:39:27;;;;;;;6.92;4.33;;;;;;;10.92;44.52;99515.91;1751042;80;20998;-73
2022/02/22 09:41:53;;;;;;;8.40;4.85;;;;;;;10.89;44.34;99515.69;1755057;81;21719;-72
2022/02/22 09:44:20;;;;;;;8.95;4.67;;;;;;;10.89;43.68;99515.69;1748264;79;21062;-73
2022/02/22 09:46:47;;;;;;;6.95;4.25;;;;;;;10.86;43.81;99517.08;1753017;79;21080;-72
2022/02/22 09:49:14;;;;;;;7.22;3.92;;;;;;;10.83;42.80;99513.63;1716382;81;21491;-73
2022/02/22 09:51:41;;;;;;;6.62;3.92;;;;;;;10.82;42.04;99511.23;1715305;81;21085;-72
2022/02/22 09:54:07;;;;;;;6.08;3.52;;;;;;;10.88;41.33;99507.42;1755313;80;20989;-71
2022/02/22 09:56:44;;;;;;;6.53;3.27;;;;;;;10.95;41.27;99503.87;1752449;79;21545;-73
2022/02/22 09:59:11;;;;;;;8.83;3.90;;;;;;;11.07;40.72;99514.16;1738490;81;20993;-72
2022/02/22 10:01:45;;;;;;;5.85;3.58;;;;;;;11.07;39.58;99507.48;1736097;82;21000;-72
2022/02/22 10:04:12;;;;;;;6.62;3.30;;;;;;;11.07;39.97;99511.49;1773848;78;20994;-72
2022/02/22 10:06:39;;;;;;;7.42;4.37;;;;;;;11.10;39.44;99511.72;1789854;78;21066;-72
2022/02/22 10:09:09;;;;;;;7.20;3.95;;;;;;;11.18;40.44;99508.94;1777170;78;21561;-73
2022/02/22 10:11:52;;;;;;;9.25;4.15;;;;;;;11.25;40.99;99503.52;1786708;78;21046;-72
2022/02/22 10:14:27;;;;;;;6.12;4.10;;;;;;;11.33;40.52;99504.75;1773572;78;21140;-72
2022/02/22 10:16:56;;;;;;;6.70;4.35;;;;;;;11.38;39.99;99503.88;1779512;78;21646;-74
2022/02/22 10:19:34;;;;;;;6.95;4.08;;;;;;;11.39;39.84;99500.14;1777839;78;21148;-72
2022/02/22 10:21:58;;;;;;;7.80;4.30;;;;;;;11.37;40.12;99500.41;1787136;78;21064;-72
2022/02/22 10:24:28;;;;;;;6.60;3.73;;;;;;;11.44;39.95;99498.72;1658302;78;9999901;-73
2022/02/22 10:27:08;;;;;;;7.13;4.27;;;;;;;11.53;39.48;99508.23;1664535;78;10000403;-74
2022/02/22 10:29:36;;;;;;;7.28;3.90;;;;;;;11.56;38.93;99500.97;1790356;78;21036;-73
2022/02/22 10:32:16;;;;;;;6.05;3.40;;;;;;;11.56;38.75;99482.25;1781317;78;21152;-72
2022/02/22 10:34:43;;;;;;;7.05;3.98;;;;;;;11.56;38.72;99488.39;1773032;78;21039;-73
2022/02/22 10:37:10;;;;;;;6.17;3.75;;;;;;;11.55;37.96;99475.30;1758839;80;21680;-72
2022/02/22 10:39:41;;;;;;;7.08;3.72;;;;;;;11.45;38.11;99486.41;1766394;80;21892;-72
2022/02/22 10:42:09;;;;;;;6.28;3.62;;;;;;;11.44;38.54;99485.34;1765415;79;21021;-72
2022/02/22 10:44:38;;;;;;;5.92;3.37;;;;;;;11.51;37.99;99475.87;1765927;80;20974;-72
2022/02/22 10:47:18;;;;;;;6.37;3.85;;;;;;;11.55;37.35;99473.44;1757206;80;21029;-73
2022/02/22 10:49:47;;;;;;;6.08;3.40;;;;;;;11.60;37.29;99477.36;1743888;80;22478;-72
2022/02/22 10:52:15;;;;;;;6.28;3.50;;;;;;;11.68;37.59;99479.40;1751796;80;21088;-73
2022/02/22 10:54:42;;;;;;;8.05;3.30;;;;;;;11.74;37.66;99478.21;1762718;80;21043;-72
2022/02/22 10:57:09;;;;;;;7.33;3.70;;;;;;;11.79;37.74;99497.42;1746253;80;21104;-74
2022/02/22 10:59:36;;;;;;;5.17;3.08;;;;;;;11.75;37.98;99483.05;1754463;79;21044;-72
2022/02/22 11:02:04;;;;;;;6.87;3.58;;;;;;;11.76;37.48;99488.64;1760582;79;21062;-73
2022/02/22 11:04:31;;;;;;;5.62;3.42;;;;;;;11.72;37.69;99487.09;1764755;81;21176;-72
2022/02/22 11:06:58;;;;;;;6.60;3.67;;;;;;;11.76;37.94;99485.17;1744749;81;21062;-73
2022/02/22 11:09:25;;;;;;;6.50;3.33;;;;;;;11.82;37.50;99489.36;1751596;79;21273;-72
2022/02/22 11:12:04;;;;;;;7.33;3.77;;;;;;;11.82;37.41;99493.38;1756823;80;21139;-72
2022/02/22 11:14:33;;;;;;;5.97;3.77;;;;;;;11.75;37.46;99487.05;1767555;79;21745;-72
2022/02/22 11:17:04;;;;;;;5.57;3.20;;;;;;;11.69;37.59;99486.88;1791309;79;21107;-73
2022/02/22 11:19:39;;;;;;;6.08;3.83;;;;;;;11.59;37.83;99470.44;1740235;79;21289;-72
2022/02/22 11:22:17;;;;;;;5.78;3.25;;;;;;;11.57;37.66;99476.60;1770586;79;21397;-73
2022/02/22 11:24:49;;;;;;;5.70;3.08;;;;;;;11.50;37.17;99474.30;1779847;79;21049;-72
2022/02/22 11:27:28;;;;;;;5.90;2.77;;;;;;;11.53;37.54;99489.52;1738484;79;21575;-71
2022/02/22 11:29:59;;;;;;;6.22;3.20;;;;;;;11.59;37.23;99493.71;1734776;82;21757;-72
2022/02/22 11:32:26;;;;;;;;;;;;;;;11.60;36.77;99481.92;1766802;79;22370;-74
2022/02/22 11:34:53;;;;;;;6.85;3.87;;;;;;;11.63;37.32;99491.50;1759694;79;20376;-74
2022/02/22 11:37:29;;;;;;;7.00;4.20;;;;;;;11.66;36.81;99492.80;1757328;79;21142;-71
2022/02/22 11:39:56;;;;;;;6.45;3.20;;;;;;;11.65;36.65;99485.88;1755296;79;21629;-72
2022/02/22 11:42:28;;;;;;;4.87;3.00;;;;;;;11.64;36.41;99491.73;1765851;79;21579;-72